sensor_id;sensor_type;location;lat;lon;timestamp;P1;durP1;ratioP1;P2;durP2;ratioP2
55210;SDS011;41082;52.822;6.666;2023-05-23T00:00:24;40.50;;;21.73;;
55210;SDS011;41082;52.822;6.666;2023-05-23T00:02:50;39.85;;;21.67;;
55210;SDS011;41082;52.822;6.666;2023-05-23T00:05:16;37.40;;;18.98;;
55210;SDS011;41082;52.822;6.666;2023-05-23T00:07:45;31.40;;;17.35;;
55210;SDS011;41082;52.822;6.666;2023-05-23T00:10:12;26.63;;;16.42;;
55210;SDS011;41082;52.822;6.666;2023-05-23T00:12:38;29.05;;;15.00;;
55210;SDS011;41082;52.822;6.666;2023-05-23T00:15:06;22.00;;;13.23;;
55210;SDS011;41082;52.822;6.666;2023-05-23T00:17:32;23.35;;;11.93;;
55210;SDS011;41082;52.822;6.666;2023-05-23T00:20:00;20.33;;;12.50;;
55210;SDS011;41082;52.822;6.666;2023-05-23T00:22:26;20.10;;;12.10;;
55210;SDS011;41082;52.822;6.666;2023-05-23T00:24:52;22.05;;;13.18;;
55210;SDS011;41082;52.822;6.666;2023-05-23T00:27:17;15.32;;;11.48;;
55210;SDS011;41082;52.822;6.666;2023-05-23T00:29:43;18.50;;;12.18;;
55210;SDS011;41082;52.822;6.666;2023-05-23T00:32:08;19.15;;;12.38;;
55210;SDS011;41082;52.822;6.666;2023-05-23T00:34:34;16.73;;;12.82;;
55210;SDS011;41082;52.822;6.666;2023-05-23T00:37:01;13.50;;;9.57;;
55210;SDS011;41082;52.822;6.666;2023-05-23T00:39:28;13.77;;;10.15;;
55210;SDS011;41082;52.822;6.666;2023-05-23T00:41:54;14.88;;;9.25;;
55210;SDS011;41082;52.822;6.666;2023-05-23T00:44:21;13.50;;;9.77;;
55210;SDS011;41082;52.822;6.666;2023-05-23T00:46:48;13.85;;;10.18;;
55210;SDS011;41082;52.822;6.666;2023-05-23T00:49:16;17.92;;;11.07;;
55210;SDS011;41082;52.822;6.666;2023-05-23T00:51:44;13.55;;;10.18;;
55210;SDS011;41082;52.822;6.666;2023-05-23T00:54:10;15.75;;;10.75;;
55210;SDS011;41082;52.822;6.666;2023-05-23T00:56:37;14.75;;;10.57;;
55210;SDS011;41082;52.822;6.666;2023-05-23T00:59:04;13.07;;;9.65;;
55210;SDS011;41082;52.822;6.666;2023-05-23T01:01:30;10.57;;;9.35;;
55210;SDS011;41082;52.822;6.666;2023-05-23T01:03:57;12.20;;;9.73;;
55210;SDS011;41082;52.822;6.666;2023-05-23T01:06:23;13.90;;;10.52;;
55210;SDS011;41082;52.822;6.666;2023-05-23T01:08:48;13.07;;;10.15;;
55210;SDS011;41082;52.822;6.666;2023-05-23T01:11:29;13.32;;;10.50;;
55210;SDS011;41082;52.822;6.666;2023-05-23T01:14:02;13.43;;;10.90;;
55210;SDS011;41082;52.822;6.666;2023-05-23T01:16:42;15.18;;;10.65;;
55210;SDS011;41082;52.822;6.666;2023-05-23T01:21:53;15.18;;;9.82;;
55210;SDS011;41082;52.822;6.666;2023-05-23T01:29:59;14.18;;;11.27;;
55210;SDS011;41082;52.822;6.666;2023-05-23T01:32:20;14.35;;;10.88;;
55210;SDS011;41082;52.822;6.666;2023-05-23T01:34:49;17.65;;;11.77;;
55210;SDS011;41082;52.822;6.666;2023-05-23T01:37:17;15.80;;;12.23;;
55210;SDS011;41082;52.822;6.666;2023-05-23T01:39:43;17.80;;;12.68;;
55210;SDS011;41082;52.822;6.666;2023-05-23T01:42:09;15.93;;;11.48;;
55210;SDS011;41082;52.822;6.666;2023-05-23T01:44:35;13.95;;;10.88;;
55210;SDS011;41082;52.822;6.666;2023-05-23T01:47:02;17.02;;;12.88;;
55210;SDS011;41082;52.822;6.666;2023-05-23T01:49:29;18.65;;;11.82;;
55210;SDS011;41082;52.822;6.666;2023-05-23T01:51:58;20.23;;;12.15;;
55210;SDS011;41082;52.822;6.666;2023-05-23T01:54:25;18.13;;;13.32;;
55210;SDS011;41082;52.822;6.666;2023-05-23T01:56:53;19.25;;;12.60;;
55210;SDS011;41082;52.822;6.666;2023-05-23T01:59:21;14.70;;;10.68;;
55210;SDS011;41082;52.822;6.666;2023-05-23T02:01:46;13.45;;;10.38;;
55210;SDS011;41082;52.822;6.666;2023-05-23T02:04:12;13.77;;;9.60;;
55210;SDS011;41082;52.822;6.666;2023-05-23T02:06:38;16.33;;;10.02;;
55210;SDS011;41082;52.822;6.666;2023-05-23T02:09:03;16.45;;;8.70;;
55210;SDS011;41082;52.822;6.666;2023-05-23T02:11:29;16.65;;;8.52;;
55210;SDS011;41082;52.822;6.666;2023-05-23T02:13:54;14.77;;;8.15;;
55210;SDS011;41082;52.822;6.666;2023-05-23T02:16:20;14.30;;;7.97;;
55210;SDS011;41082;52.822;6.666;2023-05-23T02:18:47;12.98;;;8.07;;
55210;SDS011;41082;52.822;6.666;2023-05-23T02:21:13;9.95;;;6.80;;
55210;SDS011;41082;52.822;6.666;2023-05-23T02:23:38;15.80;;;7.93;;
55210;SDS011;41082;52.822;6.666;2023-05-23T02:26:04;13.50;;;7.60;;
55210;SDS011;41082;52.822;6.666;2023-05-23T02:28:29;15.00;;;7.75;;
55210;SDS011;41082;52.822;6.666;2023-05-23T02:30:55;16.30;;;8.32;;
55210;SDS011;41082;52.822;6.666;2023-05-23T02:33:20;19.60;;;8.55;;
55210;SDS011;41082;52.822;6.666;2023-05-23T02:35:46;20.55;;;8.60;;
55210;SDS011;41082;52.822;6.666;2023-05-23T02:38:13;19.13;;;8.52;;
55210;SDS011;41082;52.822;6.666;2023-05-23T02:40:39;18.98;;;9.00;;
55210;SDS011;41082;52.822;6.666;2023-05-23T02:43:05;19.58;;;8.65;;
55210;SDS011;41082;52.822;6.666;2023-05-23T02:45:30;19.25;;;8.65;;
55210;SDS011;41082;52.822;6.666;2023-05-23T02:47:56;13.93;;;7.95;;
55210;SDS011;41082;52.822;6.666;2023-05-23T02:50:21;17.38;;;8.68;;
55210;SDS011;41082;52.822;6.666;2023-05-23T02:52:47;17.70;;;8.70;;
55210;SDS011;41082;52.822;6.666;2023-05-23T02:55:12;18.23;;;8.23;;
55210;SDS011;41082;52.822;6.666;2023-05-23T02:57:38;19.55;;;8.43;;
55210;SDS011;41082;52.822;6.666;2023-05-23T03:00:04;17.10;;;8.18;;
55210;SDS011;41082;52.822;6.666;2023-05-23T03:02:30;16.10;;;7.40;;
55210;SDS011;41082;52.822;6.666;2023-05-23T03:04:56;12.60;;;7.18;;
55210;SDS011;41082;52.822;6.666;2023-05-23T03:07:21;16.20;;;7.05;;
55210;SDS011;41082;52.822;6.666;2023-05-23T03:09:47;10.18;;;5.55;;
55210;SDS011;41082;52.822;6.666;2023-05-23T03:12:12;10.73;;;5.95;;
55210;SDS011;41082;52.822;6.666;2023-05-23T03:14:38;10.70;;;5.63;;
55210;SDS011;41082;52.822;6.666;2023-05-23T03:17:04;9.70;;;5.68;;
55210;SDS011;41082;52.822;6.666;2023-05-23T03:19:29;12.23;;;6.38;;
55210;SDS011;41082;52.822;6.666;2023-05-23T03:21:55;17.65;;;7.07;;
55210;SDS011;41082;52.822;6.666;2023-05-23T03:24:20;12.95;;;6.65;;
55210;SDS011;41082;52.822;6.666;2023-05-23T03:26:46;18.02;;;7.07;;
55210;SDS011;41082;52.822;6.666;2023-05-23T03:29:11;15.13;;;6.55;;
55210;SDS011;41082;52.822;6.666;2023-05-23T03:31:37;14.88;;;7.30;;
55210;SDS011;41082;52.822;6.666;2023-05-23T03:34:03;24.25;;;7.47;;
55210;SDS011;41082;52.822;6.666;2023-05-23T03:36:31;20.00;;;6.95;;
55210;SDS011;41082;52.822;6.666;2023-05-23T03:39:03;13.77;;;5.75;;
55210;SDS011;41082;52.822;6.666;2023-05-23T03:41:28;14.63;;;5.72;;
55210;SDS011;41082;52.822;6.666;2023-05-23T03:43:54;19.33;;;6.70;;
55210;SDS011;41082;52.822;6.666;2023-05-23T03:46:19;14.50;;;5.75;;
55210;SDS011;41082;52.822;6.666;2023-05-23T03:48:45;18.63;;;7.80;;
55210;SDS011;41082;52.822;6.666;2023-05-23T03:51:10;14.52;;;5.43;;
55210;SDS011;41082;52.822;6.666;2023-05-23T03:53:37;18.10;;;6.20;;
55210;SDS011;41082;52.822;6.666;2023-05-23T03:56:03;15.30;;;5.90;;
55210;SDS011;41082;52.822;6.666;2023-05-23T03:58:29;17.65;;;6.60;;
55210;SDS011;41082;52.822;6.666;2023-05-23T04:00:54;21.20;;;6.50;;
55210;SDS011;41082;52.822;6.666;2023-05-23T04:03:20;16.48;;;7.25;;
55210;SDS011;41082;52.822;6.666;2023-05-23T04:05:45;19.77;;;7.03;;
55210;SDS011;41082;52.822;6.666;2023-05-23T04:08:11;14.90;;;6.30;;
55210;SDS011;41082;52.822;6.666;2023-05-23T04:10:37;12.52;;;5.80;;
55210;SDS011;41082;52.822;6.666;2023-05-23T04:13:03;16.38;;;6.18;;
55210;SDS011;41082;52.822;6.666;2023-05-23T04:15:28;14.65;;;5.60;;
55210;SDS011;41082;52.822;6.666;2023-05-23T04:17:54;13.27;;;5.22;;
55210;SDS011;41082;52.822;6.666;2023-05-23T04:20:20;15.85;;;5.82;;
55210;SDS011;41082;52.822;6.666;2023-05-23T04:22:46;14.85;;;5.63;;
55210;SDS011;41082;52.822;6.666;2023-05-23T04:25:11;13.95;;;4.60;;
55210;SDS011;41082;52.822;6.666;2023-05-23T04:27:37;15.00;;;5.43;;
55210;SDS011;41082;52.822;6.666;2023-05-23T04:30:04;14.10;;;4.82;;
55210;SDS011;41082;52.822;6.666;2023-05-23T04:32:33;15.32;;;5.82;;
55210;SDS011;41082;52.822;6.666;2023-05-23T04:34:59;11.15;;;4.80;;
55210;SDS011;41082;52.822;6.666;2023-05-23T04:37:26;10.07;;;4.35;;
55210;SDS011;41082;52.822;6.666;2023-05-23T04:39:52;9.48;;;4.50;;
55210;SDS011;41082;52.822;6.666;2023-05-23T04:42:18;12.57;;;3.85;;
55210;SDS011;41082;52.822;6.666;2023-05-23T04:44:49;13.53;;;4.47;;
55210;SDS011;41082;52.822;6.666;2023-05-23T04:47:15;11.65;;;3.83;;
55210;SDS011;41082;52.822;6.666;2023-05-23T04:49:41;9.70;;;3.50;;
55210;SDS011;41082;52.822;6.666;2023-05-23T04:52:06;8.30;;;3.67;;
55210;SDS011;41082;52.822;6.666;2023-05-23T04:54:32;11.05;;;3.83;;
55210;SDS011;41082;52.822;6.666;2023-05-23T04:56:58;13.88;;;3.80;;
55210;SDS011;41082;52.822;6.666;2023-05-23T04:59:24;11.23;;;3.85;;
55210;SDS011;41082;52.822;6.666;2023-05-23T05:01:49;10.00;;;3.25;;
55210;SDS011;41082;52.822;6.666;2023-05-23T05:04:15;16.70;;;3.35;;
55210;SDS011;41082;52.822;6.666;2023-05-23T05:06:40;11.80;;;3.35;;
55210;SDS011;41082;52.822;6.666;2023-05-23T05:09:06;15.00;;;3.50;;
55210;SDS011;41082;52.822;6.666;2023-05-23T05:11:32;15.02;;;3.88;;
55210;SDS011;41082;52.822;6.666;2023-05-23T05:13:57;12.38;;;3.63;;
55210;SDS011;41082;52.822;6.666;2023-05-23T05:16:23;11.80;;;3.17;;
55210;SDS011;41082;52.822;6.666;2023-05-23T05:18:48;13.35;;;3.30;;
55210;SDS011;41082;52.822;6.666;2023-05-23T05:21:15;14.60;;;3.47;;
55210;SDS011;41082;52.822;6.666;2023-05-23T05:23:40;10.27;;;3.15;;
55210;SDS011;41082;52.822;6.666;2023-05-23T05:26:07;9.77;;;2.65;;
55210;SDS011;41082;52.822;6.666;2023-05-23T05:28:33;10.32;;;3.00;;
55210;SDS011;41082;52.822;6.666;2023-05-23T05:30:59;8.95;;;2.30;;
55210;SDS011;41082;52.822;6.666;2023-05-23T05:33:29;10.90;;;2.65;;
55210;SDS011;41082;52.822;6.666;2023-05-23T05:36:03;11.65;;;2.78;;
55210;SDS011;41082;52.822;6.666;2023-05-23T05:38:30;8.38;;;2.72;;
55210;SDS011;41082;52.822;6.666;2023-05-23T05:40:56;10.88;;;3.33;;
55210;SDS011;41082;52.822;6.666;2023-05-23T05:43:22;10.38;;;3.47;;
55210;SDS011;41082;52.822;6.666;2023-05-23T05:45:47;14.85;;;4.65;;
55210;SDS011;41082;52.822;6.666;2023-05-23T05:48:13;14.20;;;3.88;;
55210;SDS011;41082;52.822;6.666;2023-05-23T05:50:38;16.30;;;5.20;;
55210;SDS011;41082;52.822;6.666;2023-05-23T05:53:04;16.42;;;5.50;;
55210;SDS011;41082;52.822;6.666;2023-05-23T05:55:30;12.98;;;5.03;;
55210;SDS011;41082;52.822;6.666;2023-05-23T05:57:55;14.02;;;4.53;;
55210;SDS011;41082;52.822;6.666;2023-05-23T06:00:21;15.95;;;5.47;;
55210;SDS011;41082;52.822;6.666;2023-05-23T06:02:47;11.07;;;5.07;;
55210;SDS011;41082;52.822;6.666;2023-05-23T06:05:15;15.52;;;4.88;;
55210;SDS011;41082;52.822;6.666;2023-05-23T06:07:41;16.08;;;5.65;;
55210;SDS011;41082;52.822;6.666;2023-05-23T06:10:08;11.65;;;4.88;;
55210;SDS011;41082;52.822;6.666;2023-05-23T06:12:37;18.70;;;5.60;;
55210;SDS011;41082;52.822;6.666;2023-05-23T06:15:02;13.85;;;4.68;;
55210;SDS011;41082;52.822;6.666;2023-05-23T06:17:29;11.65;;;4.32;;
55210;SDS011;41082;52.822;6.666;2023-05-23T06:19:54;14.02;;;4.65;;
55210;SDS011;41082;52.822;6.666;2023-05-23T06:22:20;11.00;;;3.90;;
55210;SDS011;41082;52.822;6.666;2023-05-23T06:24:45;16.08;;;4.78;;
55210;SDS011;41082;52.822;6.666;2023-05-23T06:27:11;12.13;;;4.60;;
55210;SDS011;41082;52.822;6.666;2023-05-23T06:29:37;12.23;;;4.20;;
55210;SDS011;41082;52.822;6.666;2023-05-23T06:32:03;14.02;;;4.55;;
55210;SDS011;41082;52.822;6.666;2023-05-23T06:34:29;9.68;;;3.75;;
55210;SDS011;41082;52.822;6.666;2023-05-23T06:36:55;10.32;;;3.75;;
55210;SDS011;41082;52.822;6.666;2023-05-23T06:39:20;9.48;;;4.13;;
55210;SDS011;41082;52.822;6.666;2023-05-23T06:41:46;14.07;;;4.15;;
55210;SDS011;41082;52.822;6.666;2023-05-23T06:44:12;12.45;;;3.70;;
55210;SDS011;41082;52.822;6.666;2023-05-23T06:46:38;8.63;;;3.58;;
55210;SDS011;41082;52.822;6.666;2023-05-23T06:49:03;11.10;;;3.40;;
55210;SDS011;41082;52.822;6.666;2023-05-23T06:51:29;8.80;;;3.20;;
55210;SDS011;41082;52.822;6.666;2023-05-23T06:53:55;8.07;;;2.97;;
55210;SDS011;41082;52.822;6.666;2023-05-23T06:56:21;10.27;;;2.95;;
55210;SDS011;41082;52.822;6.666;2023-05-23T06:58:50;11.30;;;3.55;;
55210;SDS011;41082;52.822;6.666;2023-05-23T07:01:15;9.45;;;2.72;;
55210;SDS011;41082;52.822;6.666;2023-05-23T07:03:41;11.30;;;2.97;;
55210;SDS011;41082;52.822;6.666;2023-05-23T07:06:09;9.27;;;2.20;;
55210;SDS011;41082;52.822;6.666;2023-05-23T07:08:35;10.20;;;2.70;;
55210;SDS011;41082;52.822;6.666;2023-05-23T07:11:00;9.20;;;2.40;;
55210;SDS011;41082;52.822;6.666;2023-05-23T07:13:26;9.63;;;2.03;;
55210;SDS011;41082;52.822;6.666;2023-05-23T07:15:51;11.55;;;2.55;;
55210;SDS011;41082;52.822;6.666;2023-05-23T07:18:17;13.60;;;2.85;;
55210;SDS011;41082;52.822;6.666;2023-05-23T07:20:44;11.52;;;2.15;;
55210;SDS011;41082;52.822;6.666;2023-05-23T07:23:10;10.88;;;2.30;;
55210;SDS011;41082;52.822;6.666;2023-05-23T07:25:35;10.27;;;2.40;;
55210;SDS011;41082;52.822;6.666;2023-05-23T07:28:01;9.77;;;1.95;;
55210;SDS011;41082;52.822;6.666;2023-05-23T07:30:26;9.02;;;2.30;;
55210;SDS011;41082;52.822;6.666;2023-05-23T07:32:52;10.98;;;1.77;;
55210;SDS011;41082;52.822;6.666;2023-05-23T07:35:19;11.30;;;2.50;;
55210;SDS011;41082;52.822;6.666;2023-05-23T07:37:49;14.65;;;2.28;;
55210;SDS011;41082;52.822;6.666;2023-05-23T07:40:16;15.45;;;3.05;;
55210;SDS011;41082;52.822;6.666;2023-05-23T07:42:41;12.55;;;2.50;;
55210;SDS011;41082;52.822;6.666;2023-05-23T07:45:07;17.25;;;3.55;;
55210;SDS011;41082;52.822;6.666;2023-05-23T07:47:33;12.07;;;2.63;;
55210;SDS011;41082;52.822;6.666;2023-05-23T07:49:58;15.18;;;2.45;;
55210;SDS011;41082;52.822;6.666;2023-05-23T07:52:26;13.35;;;2.90;;
55210;SDS011;41082;52.822;6.666;2023-05-23T07:54:53;17.75;;;3.17;;
55210;SDS011;41082;52.822;6.666;2023-05-23T07:57:18;17.73;;;3.10;;
55210;SDS011;41082;52.822;6.666;2023-05-23T07:59:44;15.82;;;2.40;;
55210;SDS011;41082;52.822;6.666;2023-05-23T08:02:09;15.00;;;2.85;;
55210;SDS011;41082;52.822;6.666;2023-05-23T08:04:35;15.02;;;2.45;;
55210;SDS011;41082;52.822;6.666;2023-05-23T08:07:00;12.98;;;2.47;;
55210;SDS011;41082;52.822;6.666;2023-05-23T08:09:26;17.60;;;3.15;;
55210;SDS011;41082;52.822;6.666;2023-05-23T08:11:52;11.35;;;2.47;;
55210;SDS011;41082;52.822;6.666;2023-05-23T08:14:18;14.82;;;2.60;;
55210;SDS011;41082;52.822;6.666;2023-05-23T08:16:43;12.00;;;2.60;;
55210;SDS011;41082;52.822;6.666;2023-05-23T08:19:10;15.88;;;2.42;;
55210;SDS011;41082;52.822;6.666;2023-05-23T08:21:35;17.45;;;2.65;;
55210;SDS011;41082;52.822;6.666;2023-05-23T08:24:01;15.48;;;2.10;;
55210;SDS011;41082;52.822;6.666;2023-05-23T08:26:26;14.90;;;2.58;;
55210;SDS011;41082;52.822;6.666;2023-05-23T08:28:58;12.15;;;1.85;;
55210;SDS011;41082;52.822;6.666;2023-05-23T08:31:26;16.25;;;2.63;;
55210;SDS011;41082;52.822;6.666;2023-05-23T08:33:52;15.60;;;2.38;;
55210;SDS011;41082;52.822;6.666;2023-05-23T08:36:18;18.88;;;3.00;;
55210;SDS011;41082;52.822;6.666;2023-05-23T08:38:43;13.10;;;2.33;;
55210;SDS011;41082;52.822;6.666;2023-05-23T08:41:12;14.45;;;2.30;;
55210;SDS011;41082;52.822;6.666;2023-05-23T08:43:42;14.30;;;2.15;;
55210;SDS011;41082;52.822;6.666;2023-05-23T08:46:08;13.45;;;2.45;;
55210;SDS011;41082;52.822;6.666;2023-05-23T08:48:34;10.52;;;1.75;;
55210;SDS011;41082;52.822;6.666;2023-05-23T08:51:02;11.30;;;2.03;;
55210;SDS011;41082;52.822;6.666;2023-05-23T08:53:30;18.85;;;3.38;;
55210;SDS011;41082;52.822;6.666;2023-05-23T08:55:57;11.00;;;2.42;;
55210;SDS011;41082;52.822;6.666;2023-05-23T08:58:29;16.48;;;3.17;;
55210;SDS011;41082;52.822;6.666;2023-05-23T09:00:56;12.70;;;2.55;;
55210;SDS011;41082;52.822;6.666;2023-05-23T09:03:24;17.58;;;2.50;;
55210;SDS011;41082;52.822;6.666;2023-05-23T09:05:52;16.30;;;2.38;;
55210;SDS011;41082;52.822;6.666;2023-05-23T09:08:18;11.48;;;2.35;;
55210;SDS011;41082;52.822;6.666;2023-05-23T09:10:45;15.93;;;2.22;;
55210;SDS011;41082;52.822;6.666;2023-05-23T09:13:13;15.93;;;3.13;;
55210;SDS011;41082;52.822;6.666;2023-05-23T09:15:54;14.80;;;2.33;;
55210;SDS011;41082;52.822;6.666;2023-05-23T09:18:23;13.60;;;2.60;;
55210;SDS011;41082;52.822;6.666;2023-05-23T09:20:49;13.73;;;3.10;;
55210;SDS011;41082;52.822;6.666;2023-05-23T09:23:15;14.55;;;3.03;;
55210;SDS011;41082;52.822;6.666;2023-05-23T09:25:47;12.18;;;2.10;;
55210;SDS011;41082;52.822;6.666;2023-05-23T09:28:13;8.82;;;2.58;;
55210;SDS011;41082;52.822;6.666;2023-05-23T09:30:39;13.48;;;2.75;;
55210;SDS011;41082;52.822;6.666;2023-05-23T09:33:04;12.45;;;3.55;;
55210;SDS011;41082;52.822;6.666;2023-05-23T09:35:30;11.73;;;2.05;;
55210;SDS011;41082;52.822;6.666;2023-05-23T09:37:56;12.38;;;2.25;;
55210;SDS011;41082;52.822;6.666;2023-05-23T09:40:29;10.75;;;2.47;;
55210;SDS011;41082;52.822;6.666;2023-05-23T09:43:02;14.07;;;2.72;;
55210;SDS011;41082;52.822;6.666;2023-05-23T09:45:29;14.32;;;2.17;;
55210;SDS011;41082;52.822;6.666;2023-05-23T09:47:55;8.25;;;2.05;;
55210;SDS011;41082;52.822;6.666;2023-05-23T09:50:21;10.10;;;2.13;;
55210;SDS011;41082;52.822;6.666;2023-05-23T09:52:47;12.45;;;2.78;;
55210;SDS011;41082;52.822;6.666;2023-05-23T09:55:13;9.55;;;2.25;;
55210;SDS011;41082;52.822;6.666;2023-05-23T09:57:40;15.35;;;2.50;;
55210;SDS011;41082;52.822;6.666;2023-05-23T10:00:07;15.23;;;2.35;;
55210;SDS011;41082;52.822;6.666;2023-05-23T10:08:17;13.10;;;2.58;;
55210;SDS011;41082;52.822;6.666;2023-05-23T10:13:21;9.00;;;2.33;;
55210;SDS011;41082;52.822;6.666;2023-05-23T10:15:50;11.63;;;2.10;;
55210;SDS011;41082;52.822;6.666;2023-05-23T10:18:24;14.50;;;2.13;;
55210;SDS011;41082;52.822;6.666;2023-05-23T10:20:53;12.65;;;2.35;;
55210;SDS011;41082;52.822;6.666;2023-05-23T10:23:21;12.18;;;2.60;;
55210;SDS011;41082;52.822;6.666;2023-05-23T10:25:47;12.55;;;1.85;;
55210;SDS011;41082;52.822;6.666;2023-05-23T10:28:13;8.00;;;1.92;;
55210;SDS011;41082;52.822;6.666;2023-05-23T10:30:39;13.05;;;2.25;;
55210;SDS011;41082;52.822;6.666;2023-05-23T10:33:05;14.48;;;2.20;;
55210;SDS011;41082;52.822;6.666;2023-05-23T10:43:43;9.80;;;2.22;;
55210;SDS011;41082;52.822;6.666;2023-05-23T10:46:18;11.70;;;2.13;;
55210;SDS011;41082;52.822;6.666;2023-05-23T10:48:45;16.13;;;3.10;;
55210;SDS011;41082;52.822;6.666;2023-05-23T10:51:12;12.88;;;2.38;;
55210;SDS011;41082;52.822;6.666;2023-05-23T10:53:43;13.65;;;2.80;;
55210;SDS011;41082;52.822;6.666;2023-05-23T10:56:10;13.68;;;3.22;;
55210;SDS011;41082;52.822;6.666;2023-05-23T10:58:46;17.52;;;2.72;;
55210;SDS011;41082;52.822;6.666;2023-05-23T11:01:16;12.20;;;2.20;;
55210;SDS011;41082;52.822;6.666;2023-05-23T11:09:04;10.52;;;1.58;;
55210;SDS011;41082;52.822;6.666;2023-05-23T11:12:01;10.90;;;2.35;;
55210;SDS011;41082;52.822;6.666;2023-05-23T11:17:14;11.73;;;1.23;;
55210;SDS011;41082;52.822;6.666;2023-05-23T11:20:00;11.45;;;1.88;;
55210;SDS011;41082;52.822;6.666;2023-05-23T11:22:29;12.40;;;2.00;;
55210;SDS011;41082;52.822;6.666;2023-05-23T11:24:56;9.70;;;2.08;;
55210;SDS011;41082;52.822;6.666;2023-05-23T11:27:35;8.43;;;1.90;;
55210;SDS011;41082;52.822;6.666;2023-05-23T11:30:03;8.80;;;1.63;;
55210;SDS011;41082;52.822;6.666;2023-05-23T11:32:32;9.85;;;2.35;;
55210;SDS011;41082;52.822;6.666;2023-05-23T11:34:59;12.70;;;2.10;;
55210;SDS011;41082;52.822;6.666;2023-05-23T11:37:26;11.45;;;1.90;;
55210;SDS011;41082;52.822;6.666;2023-05-23T11:39:51;8.90;;;1.48;;
55210;SDS011;41082;52.822;6.666;2023-05-23T11:42:17;11.35;;;2.35;;
55210;SDS011;41082;52.822;6.666;2023-05-23T11:44:43;13.23;;;2.03;;
55210;SDS011;41082;52.822;6.666;2023-05-23T11:47:09;11.30;;;2.05;;
55210;SDS011;41082;52.822;6.666;2023-05-23T11:49:35;9.13;;;1.60;;
55210;SDS011;41082;52.822;6.666;2023-05-23T11:52:03;12.02;;;2.47;;
55210;SDS011;41082;52.822;6.666;2023-05-23T11:54:30;12.73;;;1.63;;
55210;SDS011;41082;52.822;6.666;2023-05-23T11:56:56;9.60;;;1.92;;
55210;SDS011;41082;52.822;6.666;2023-05-23T11:59:22;15.70;;;2.30;;
55210;SDS011;41082;52.822;6.666;2023-05-23T12:01:52;12.18;;;2.13;;
55210;SDS011;41082;52.822;6.666;2023-05-23T12:04:18;10.35;;;1.63;;
55210;SDS011;41082;52.822;6.666;2023-05-23T12:06:47;11.70;;;1.83;;
55210;SDS011;41082;52.822;6.666;2023-05-23T12:09:13;8.15;;;1.38;;
55210;SDS011;41082;52.822;6.666;2023-05-23T12:11:41;8.60;;;1.33;;
55210;SDS011;41082;52.822;6.666;2023-05-23T12:14:07;6.47;;;1.17;;
55210;SDS011;41082;52.822;6.666;2023-05-23T12:16:34;6.32;;;1.40;;
55210;SDS011;41082;52.822;6.666;2023-05-23T12:19:01;9.40;;;1.55;;
55210;SDS011;41082;52.822;6.666;2023-05-23T12:21:39;12.65;;;1.70;;
55210;SDS011;41082;52.822;6.666;2023-05-23T12:24:11;13.95;;;2.20;;
55210;SDS011;41082;52.822;6.666;2023-05-23T12:26:44;7.95;;;1.80;;
55210;SDS011;41082;52.822;6.666;2023-05-23T12:31:54;6.47;;;1.52;;
55210;SDS011;41082;52.822;6.666;2023-05-23T12:34:22;7.55;;;1.27;;
55210;SDS011;41082;52.822;6.666;2023-05-23T12:36:48;8.60;;;1.45;;
55210;SDS011;41082;52.822;6.666;2023-05-23T12:39:15;8.20;;;1.17;;
55210;SDS011;41082;52.822;6.666;2023-05-23T12:41:49;7.97;;;1.75;;
55210;SDS011;41082;52.822;6.666;2023-05-23T12:44:14;8.27;;;1.58;;
55210;SDS011;41082;52.822;6.666;2023-05-23T12:46:40;8.40;;;1.55;;
55210;SDS011;41082;52.822;6.666;2023-05-23T12:49:06;15.65;;;2.53;;
55210;SDS011;41082;52.822;6.666;2023-05-23T12:51:32;9.50;;;1.80;;
55210;SDS011;41082;52.822;6.666;2023-05-23T12:53:57;9.57;;;1.60;;
55210;SDS011;41082;52.822;6.666;2023-05-23T12:56:23;10.93;;;1.98;;
55210;SDS011;41082;52.822;6.666;2023-05-23T12:58:50;11.23;;;1.70;;
55210;SDS011;41082;52.822;6.666;2023-05-23T13:01:17;7.32;;;1.25;;
55210;SDS011;41082;52.822;6.666;2023-05-23T13:03:43;6.93;;;1.48;;
55210;SDS011;41082;52.822;6.666;2023-05-23T13:06:09;9.27;;;1.80;;
55210;SDS011;41082;52.822;6.666;2023-05-23T13:08:35;9.80;;;1.85;;
55210;SDS011;41082;52.822;6.666;2023-05-23T13:11:01;9.00;;;1.60;;
55210;SDS011;41082;52.822;6.666;2023-05-23T13:13:27;9.55;;;1.40;;
55210;SDS011;41082;52.822;6.666;2023-05-23T13:15:52;7.30;;;1.40;;
55210;SDS011;41082;52.822;6.666;2023-05-23T13:18:18;7.53;;;1.10;;
55210;SDS011;41082;52.822;6.666;2023-05-23T13:20:44;8.25;;;1.63;;
55210;SDS011;41082;52.822;6.666;2023-05-23T13:23:10;11.02;;;1.50;;
55210;SDS011;41082;52.822;6.666;2023-05-23T13:25:35;9.20;;;1.38;;
55210;SDS011;41082;52.822;6.666;2023-05-23T13:28:01;11.90;;;1.80;;
55210;SDS011;41082;52.822;6.666;2023-05-23T13:30:27;8.82;;;1.48;;
55210;SDS011;41082;52.822;6.666;2023-05-23T13:32:53;12.70;;;1.48;;
55210;SDS011;41082;52.822;6.666;2023-05-23T13:35:19;10.90;;;1.67;;
55210;SDS011;41082;52.822;6.666;2023-05-23T13:37:45;7.90;;;1.40;;
55210;SDS011;41082;52.822;6.666;2023-05-23T13:40:11;9.27;;;1.80;;
55210;SDS011;41082;52.822;6.666;2023-05-23T13:45:08;7.03;;;1.48;;
55210;SDS011;41082;52.822;6.666;2023-05-23T13:47:33;10.13;;;1.58;;
55210;SDS011;41082;52.822;6.666;2023-05-23T13:50:00;10.32;;;1.30;;
55210;SDS011;41082;52.822;6.666;2023-05-23T13:52:26;10.57;;;1.63;;
55210;SDS011;41082;52.822;6.666;2023-05-23T13:54:52;9.38;;;0.88;;
55210;SDS011;41082;52.822;6.666;2023-05-23T13:57:17;7.30;;;1.00;;
55210;SDS011;41082;52.822;6.666;2023-05-23T13:59:43;11.10;;;1.92;;
55210;SDS011;41082;52.822;6.666;2023-05-23T14:02:09;9.10;;;1.50;;
55210;SDS011;41082;52.822;6.666;2023-05-23T14:04:35;9.40;;;1.27;;
55210;SDS011;41082;52.822;6.666;2023-05-23T14:07:01;7.15;;;1.27;;
55210;SDS011;41082;52.822;6.666;2023-05-23T14:09:27;9.20;;;1.30;;
55210;SDS011;41082;52.822;6.666;2023-05-23T14:11:53;7.25;;;1.30;;
55210;SDS011;41082;52.822;6.666;2023-05-23T14:14:19;8.55;;;1.52;;
55210;SDS011;41082;52.822;6.666;2023-05-23T14:16:44;10.32;;;1.42;;
55210;SDS011;41082;52.822;6.666;2023-05-23T14:19:10;8.20;;;1.80;;
55210;SDS011;41082;52.822;6.666;2023-05-23T14:21:36;10.82;;;1.60;;
55210;SDS011;41082;52.822;6.666;2023-05-23T14:24:02;11.82;;;1.35;;
55210;SDS011;41082;52.822;6.666;2023-05-23T14:26:28;10.68;;;1.00;;
55210;SDS011;41082;52.822;6.666;2023-05-23T14:28:54;7.68;;;0.90;;
55210;SDS011;41082;52.822;6.666;2023-05-23T14:31:19;9.77;;;1.73;;
55210;SDS011;41082;52.822;6.666;2023-05-23T14:33:45;7.88;;;1.15;;
55210;SDS011;41082;52.822;6.666;2023-05-23T14:36:13;8.15;;;1.25;;
55210;SDS011;41082;52.822;6.666;2023-05-23T14:38:39;8.40;;;1.15;;
55210;SDS011;41082;52.822;6.666;2023-05-23T14:41:05;6.78;;;1.17;;
55210;SDS011;41082;52.822;6.666;2023-05-23T14:43:31;8.20;;;1.23;;
55210;SDS011;41082;52.822;6.666;2023-05-23T14:45:57;11.00;;;1.65;;
55210;SDS011;41082;52.822;6.666;2023-05-23T14:48:23;7.43;;;1.10;;
55210;SDS011;41082;52.822;6.666;2023-05-23T14:50:49;5.68;;;1.15;;
55210;SDS011;41082;52.822;6.666;2023-05-23T14:53:14;8.55;;;1.52;;
55210;SDS011;41082;52.822;6.666;2023-05-23T14:55:40;6.93;;;1.23;;
55210;SDS011;41082;52.822;6.666;2023-05-23T14:58:06;6.68;;;1.15;;
55210;SDS011;41082;52.822;6.666;2023-05-23T15:00:31;7.07;;;1.10;;
55210;SDS011;41082;52.822;6.666;2023-05-23T15:02:57;14.32;;;1.20;;
55210;SDS011;41082;52.822;6.666;2023-05-23T15:05:22;12.52;;;1.88;;
55210;SDS011;41082;52.822;6.666;2023-05-23T15:07:49;7.05;;;2.45;;
55210;SDS011;41082;52.822;6.666;2023-05-23T15:10:15;8.40;;;1.60;;